createdAt,value
2023-04-29T00:01:37.172Z,95.13
2023-04-29T00:06:38.873Z,94.21
2023-04-29T00:11:40.628Z,94.38
2023-04-29T00:16:42.384Z,94.19
2023-04-29T00:21:44.198Z,93.61
2023-04-29T00:26:45.854Z,91.98
2023-04-29T00:31:48.384Z,91.08
2023-04-29T00:36:50.589Z,91.02
2023-04-29T00:41:53.464Z,89.87
2023-04-29T00:46:55.964Z,89.47
2023-04-29T00:51:58.166Z,89.88
2023-04-29T00:57:01.644Z,89.59
2023-04-29T01:02:05.065Z,90.09
2023-04-29T01:07:16.134Z,89.77
2023-04-29T01:12:45.629Z,89.34
2023-04-29T01:18:00.395Z,89.80
2023-04-29T01:23:02.563Z,89.77
2023-04-29T01:28:42.344Z,88.08
2023-04-29T01:34:20.396Z,86.82
2023-04-29T01:39:42.085Z,86.11
2023-04-29T01:44:52.714Z,85.32
2023-04-29T01:49:57.092Z,85.41
2023-04-29T01:54:58.884Z,84.69
2023-04-29T02:00:07.010Z,83.35
2023-04-29T02:05:26.475Z,84.46
2023-04-29T02:10:31.541Z,83.77
2023-04-29T02:15:48.021Z,83.93
2023-04-29T02:20:51.906Z,84.46
2023-04-29T02:25:55.706Z,83.30
2023-04-29T02:30:59.407Z,83.46
2023-04-29T02:36:01.077Z,82.12
2023-04-29T02:41:02.784Z,83.28
2023-04-29T02:46:04.833Z,82.23
2023-04-29T02:51:06.764Z,81.96
2023-04-29T02:56:08.488Z,83.20
2023-04-29T03:01:10.309Z,83.36
2023-04-29T03:06:11.991Z,83.83
2023-04-29T03:11:13.675Z,85.67
2023-04-29T03:16:18.953Z,87.46
2023-04-29T03:21:20.663Z,88.21
2023-04-29T03:26:24.330Z,89.70
2023-04-29T03:31:27.550Z,90.70
2023-04-29T03:36:29.488Z,90.98
2023-04-29T03:41:37.774Z,91.22
2023-04-29T03:46:40.839Z,90.90
2023-04-29T03:51:45.216Z,90.04
2023-04-29T03:56:50.201Z,88.56
2023-04-29T04:01:54.155Z,89.04
2023-04-29T04:06:56.724Z,87.50
2023-04-29T04:12:02.952Z,88.20
2023-04-29T04:17:04.810Z,86.10
2023-04-29T04:22:07.829Z,83.37
2023-04-29T04:27:13.440Z,85.63
2023-04-29T04:32:21.815Z,86.23
2023-04-29T04:37:23.823Z,86.56
2023-04-29T04:42:29.404Z,88.15
2023-04-29T04:47:33.419Z,88.31
2023-04-29T04:52:39.751Z,88.38
2023-04-29T04:57:55.551Z,89.08
2023-04-29T05:02:58.146Z,88.85
2023-04-29T05:08:00.337Z,89.61
2023-04-29T05:13:08.468Z,89.92
2023-04-29T05:18:11.905Z,89.09
2023-04-29T05:23:15.721Z,88.77
2023-04-29T05:28:20.281Z,88.34
2023-04-29T05:33:22.399Z,88.05
2023-04-29T05:38:29.377Z,87.16
2023-04-29T05:43:48.704Z,86.72
2023-04-29T05:48:50.875Z,86.38
2023-04-29T05:53:52.683Z,84.33
2023-04-29T05:58:54.649Z,85.01
2023-04-29T06:03:56.787Z,84.28
2023-04-29T06:09:08.629Z,84.35
2023-04-29T06:14:16.075Z,83.67
2023-04-29T06:19:20.888Z,83.43
2023-04-29T06:24:23.622Z,82.65
2023-04-29T06:29:25.451Z,82.56
2023-04-29T06:34:27.174Z,81.22
2023-04-29T06:39:50.185Z,80.51
2023-04-29T06:45:12.226Z,79.40
2023-04-29T06:50:31.720Z,77.84
2023-04-29T06:55:35.690Z,78.04
2023-04-29T07:00:38.292Z,76.60
2023-04-29T07:05:41.897Z,75.71
2023-04-29T07:10:43.786Z,74.64
2023-04-29T07:15:45.452Z,74.17
2023-04-29T07:20:48.610Z,73.68
2023-04-29T07:25:50.559Z,71.79
2023-04-29T07:30:52.863Z,71.53
2023-04-29T07:35:54.695Z,70.85
2023-04-29T07:40:56.612Z,70.48
2023-04-29T07:46:01.835Z,69.87
2023-04-29T07:51:03.795Z,67.52
2023-04-29T07:56:07.649Z,66.84
2023-04-29T08:01:10.461Z,64.54
2023-04-29T08:06:12.724Z,64.44
2023-04-29T08:11:18.903Z,66.36
2023-04-29T08:16:21.977Z,67.70
2023-04-29T08:21:24.077Z,67.49
2023-04-29T08:26:26.058Z,65.27
2023-04-29T08:31:27.724Z,63.83
2023-04-29T08:36:29.963Z,64.78
2023-04-29T08:41:33.212Z,65.15
2023-04-29T08:46:34.999Z,65.40
2023-04-29T08:51:36.890Z,65.50
2023-04-29T08:56:39.814Z,65.89
2023-04-29T09:01:43.050Z,65.64
2023-04-29T09:06:45.510Z,66.02
2023-04-29T09:11:48.362Z,65.06
2023-04-29T09:16:50.611Z,62.93
2023-04-29T09:21:58.149Z,60.19
2023-04-29T09:27:00.434Z,61.43
2023-04-29T09:32:21.624Z,57.90
2023-04-29T09:37:26.259Z,55.28
2023-04-29T09:42:27.930Z,54.68
2023-04-29T09:47:34.022Z,53.90
2023-04-29T09:52:42.501Z,51.86
2023-04-29T09:57:45.764Z,51.14
2023-04-29T10:02:51.787Z,49.92
2023-04-29T10:07:54.444Z,51.38
2023-04-29T10:12:56.733Z,49.28
2023-04-29T10:18:20.651Z,47.81
2023-04-29T10:23:23.805Z,47.33
2023-04-29T10:28:27.808Z,50.93
2023-04-29T10:33:35.423Z,51.13
2023-04-29T10:38:44.878Z,47.55
2023-04-29T10:43:50.395Z,44.68
2023-04-29T10:48:59.612Z,47.83
2023-04-29T10:54:14.705Z,47.02
2023-04-29T10:59:21.110Z,45.00
2023-04-29T11:04:23.471Z,47.57
2023-04-29T11:09:35.458Z,47.19
2023-04-29T11:14:52.693Z,46.97
2023-04-29T11:19:56.217Z,45.67
2023-04-29T11:25:02.123Z,44.48
2023-04-29T11:30:06.539Z,46.61
2023-04-29T11:35:09.676Z,46.69
2023-04-29T11:40:13.271Z,45.77
2023-04-29T11:45:21.140Z,46.31
2023-04-29T11:50:23.484Z,44.65
2023-04-29T11:55:27.381Z,45.31
2023-04-29T12:00:31.230Z,45.06
2023-04-29T12:05:32.944Z,44.64
2023-04-29T12:10:37.425Z,44.71
2023-04-29T12:15:40.355Z,44.62
2023-04-29T12:20:42.368Z,42.98
2023-04-29T12:25:55.519Z,43.11
2023-04-29T12:30:59.101Z,42.16
2023-04-29T12:36:25.274Z,42.56
2023-04-29T12:41:44.335Z,42.97
2023-04-29T12:46:46.159Z,42.34
2023-04-29T12:51:51.109Z,41.98
2023-04-29T12:56:53.814Z,43.67
2023-04-29T13:01:55.752Z,43.40
2023-04-29T13:07:00.929Z,43.01
2023-04-29T13:12:02.966Z,42.04
2023-04-29T13:17:06.194Z,41.84
2023-04-29T13:22:07.901Z,41.38
2023-04-29T13:27:10.493Z,41.88
2023-04-29T13:32:12.550Z,41.83
2023-04-29T13:37:14.298Z,42.39
2023-04-29T13:42:20.142Z,41.94
2023-04-29T13:47:26.043Z,41.40
2023-04-29T13:58:03.039Z,42.04
2023-04-29T14:08:01.484Z,41.92
2023-04-29T14:13:03.297Z,41.30
2023-04-29T14:18:07.647Z,41.62
2023-04-29T14:23:09.395Z,42.09
2023-04-29T14:28:11.488Z,39.55
2023-04-29T14:33:13.189Z,39.39
2023-04-29T14:38:14.901Z,38.85
2023-04-29T14:43:16.584Z,37.83
2023-04-29T14:48:19.913Z,35.84
2023-04-29T14:53:22.082Z,35.18
2023-04-29T14:58:23.865Z,34.34
2023-04-29T15:03:26.104Z,34.61
2023-04-29T15:08:28.097Z,32.74
2023-04-29T15:13:30.198Z,33.16
2023-04-29T15:18:33.634Z,33.61
2023-04-29T15:23:35.285Z,33.75
2023-04-29T15:28:38.175Z,33.23
2023-04-29T15:33:39.906Z,31.79
2023-04-29T15:38:41.789Z,33.84
2023-04-29T15:43:43.478Z,33.85
2023-04-29T15:48:45.419Z,35.89
2023-04-29T15:53:49.474Z,37.42
2023-04-29T15:58:53.290Z,37.04
2023-04-29T16:03:54.971Z,37.38
2023-04-29T16:08:56.796Z,33.65
2023-04-29T16:13:58.551Z,34.19
2023-04-29T16:19:00.247Z,34.58
2023-04-29T16:24:04.236Z,34.39
2023-04-29T16:29:06.402Z,33.69
2023-04-29T16:34:08.064Z,34.14
2023-04-29T16:39:09.750Z,36.99
2023-04-29T16:44:11.799Z,32.81
2023-04-29T16:49:15.394Z,36.28
2023-04-29T16:54:18.434Z,39.30
2023-04-29T16:59:20.629Z,37.12
2023-04-29T17:04:23.090Z,36.32
2023-04-29T17:09:26.007Z,35.84
2023-04-29T17:14:27.808Z,36.44
2023-04-29T17:19:29.687Z,37.69
2023-04-29T17:24:32.672Z,38.14
2023-04-29T17:29:34.339Z,36.92
2023-04-29T17:34:37.411Z,35.83
2023-04-29T17:39:41.064Z,37.22
2023-04-29T17:44:42.659Z,36.28
2023-04-29T17:49:44.470Z,36.21
2023-04-29T17:54:46.115Z,35.97
2023-04-29T17:59:50.132Z,35.77
2023-04-29T18:04:53.966Z,35.15
2023-04-29T18:09:56.115Z,35.58
2023-04-29T18:14:58.023Z,37.56
2023-04-29T18:19:59.696Z,42.68
2023-04-29T18:25:01.369Z,46.67
2023-04-29T18:30:05.905Z,48.65
2023-04-29T18:35:09.613Z,47.85
2023-04-29T18:40:11.941Z,48.54
2023-04-29T18:45:13.624Z,48.61
2023-04-29T18:50:15.342Z,50.16
2023-04-29T18:55:17.043Z,51.02
2023-04-29T19:00:19.904Z,51.61
2023-04-29T19:05:21.723Z,51.04
2023-04-29T19:10:23.541Z,51.14
2023-04-29T19:15:27.968Z,51.74
2023-04-29T19:20:29.754Z,51.84
2023-04-29T19:25:31.985Z,52.38
2023-04-29T19:30:34.862Z,52.83
2023-04-29T19:35:36.749Z,52.83
2023-04-29T19:40:38.561Z,53.42
2023-04-29T19:45:40.681Z,53.72
2023-04-29T19:50:42.402Z,54.78
2023-04-29T19:55:44.673Z,55.67
2023-04-29T20:00:46.414Z,55.74
2023-04-29T20:05:49.429Z,56.43
2023-04-29T20:10:51.222Z,56.50
2023-04-29T20:15:54.349Z,57.01
2023-04-29T20:20:56.435Z,57.79
2023-04-29T20:25:58.405Z,59.27
2023-04-29T20:31:00.151Z,59.45
2023-04-29T20:36:06.546Z,60.12
2023-04-29T20:41:08.428Z,61.32
2023-04-29T20:46:12.201Z,61.52
2023-04-29T20:51:14.166Z,61.29
2023-04-29T20:56:16.248Z,62.21
2023-04-29T21:01:19.725Z,63.61
2023-04-29T21:06:21.779Z,64.34
2023-04-29T21:11:23.845Z,64.54
2023-04-29T21:16:28.252Z,64.67
2023-04-29T21:21:31.821Z,65.11
2023-04-29T21:26:33.761Z,65.85
2023-04-29T21:31:38.782Z,65.17
2023-04-29T21:36:47.149Z,66.32
2023-04-29T21:42:11.057Z,66.31
2023-04-29T21:47:20.830Z,68.37
2023-04-29T21:52:28.204Z,67.88
2023-04-29T21:57:44.968Z,67.38
2023-04-29T22:02:53.862Z,67.75
2023-04-29T22:08:06.150Z,68.60
2023-04-29T22:13:08.486Z,69.23
2023-04-29T22:18:22.270Z,68.44
2023-04-29T22:23:24.101Z,67.84
2023-04-29T22:28:28.446Z,67.62
2023-04-29T22:34:04.769Z,67.83
2023-04-29T22:39:14.171Z,68.90
2023-04-29T22:44:19.744Z,70.12
2023-04-29T22:49:21.371Z,69.77
2023-04-29T22:54:22.992Z,70.20
2023-04-29T22:59:24.631Z,71.29
2023-04-29T23:04:26.361Z,71.75
2023-04-29T23:09:28.062Z,71.71
2023-04-29T23:14:29.696Z,70.99
2023-04-29T23:19:31.413Z,72.02
2023-04-29T23:24:42.865Z,71.86
2023-04-29T23:30:02.432Z,72.43
2023-04-29T23:35:04.291Z,72.73
2023-04-29T23:40:07.356Z,72.62
2023-04-29T23:45:09.521Z,72.90
2023-04-29T23:50:11.245Z,73.69
2023-04-29T23:55:12.872Z,73.77
